createdAt,value
2023-10-10T00:02:29.966Z,0.00
2023-10-10T00:05:00.832Z,4.00
2023-10-10T00:07:36.395Z,3.00
2023-10-10T00:10:05.893Z,0.50
2023-10-10T00:12:39.046Z,1.00
2023-10-10T00:15:11.355Z,3.00
2023-10-10T00:17:39.997Z,2.50
2023-10-10T00:20:19.255Z,3.00
2023-10-10T00:22:51.291Z,3.25
2023-10-10T00:25:24.731Z,1.00
2023-10-10T00:28:00.414Z,3.00
2023-10-10T00:30:36.432Z,4.00
2023-10-10T00:33:05.470Z,2.50
2023-10-10T00:35:34.346Z,3.00
2023-10-10T00:38:06.284Z,4.00
2023-10-10T00:40:40.106Z,5.00
2023-10-10T00:43:17.157Z,4.00
2023-10-10T00:45:53.446Z,4.00
2023-10-10T00:48:24.104Z,5.00
2023-10-10T00:51:07.138Z,4.50
2023-10-10T00:53:37.047Z,1.50
2023-10-10T00:56:07.669Z,3.00
2023-10-10T00:58:39.512Z,2.00
2023-10-10T01:01:11.824Z,1.50
2023-10-10T01:03:43.601Z,5.50
2023-10-10T01:06:15.685Z,3.25
2023-10-10T01:08:53.376Z,0.50
2023-10-10T01:11:24.078Z,3.25
2023-10-10T01:13:55.169Z,2.50
2023-10-10T01:16:28.614Z,5.25
2023-10-10T01:18:59.495Z,1.00
2023-10-10T01:21:34.607Z,1.00
2023-10-10T01:24:07.877Z,0.00
2023-10-10T01:26:45.758Z,3.50
2023-10-10T01:29:23.182Z,3.50
2023-10-10T01:31:53.932Z,3.00
2023-10-10T01:34:41.102Z,3.00
2023-10-10T01:37:15.823Z,3.50
2023-10-10T01:39:52.972Z,5.50
2023-10-10T01:42:32.279Z,3.50
2023-10-10T01:45:04.333Z,3.75
2023-10-10T01:47:36.306Z,3.00
2023-10-10T01:50:09.369Z,6.00
2023-10-10T01:52:45.167Z,6.00
2023-10-10T01:55:13.579Z,7.00
2023-10-10T01:57:42.103Z,2.50
2023-10-10T02:00:21.743Z,4.00
2023-10-10T02:02:51.943Z,3.50
2023-10-10T02:05:33.422Z,3.25
2023-10-10T02:08:05.231Z,4.50
2023-10-10T02:10:34.245Z,1.00
2023-10-10T02:13:05.988Z,1.50
2023-10-10T02:15:37.011Z,1.50
2023-10-10T02:18:08.022Z,1.50
2023-10-10T02:20:51.564Z,0.50
2023-10-10T02:23:34.047Z,2.50
2023-10-10T02:26:16.036Z,1.00
2023-10-10T02:28:50.255Z,1.00
2023-10-10T02:31:20.002Z,3.00
2023-10-10T02:33:51.238Z,1.00
2023-10-10T02:36:31.492Z,1.00
2023-10-10T02:39:20.329Z,2.00
2023-10-10T02:41:53.639Z,3.00
2023-10-10T02:44:47.513Z,0.00
2023-10-10T02:47:27.602Z,3.25
2023-10-10T02:49:58.151Z,5.50
2023-10-10T02:52:27.589Z,3.50
2023-10-10T02:54:57.233Z,3.00
2023-10-10T02:57:30.923Z,4.00
2023-10-10T03:00:17.358Z,1.00
2023-10-10T03:02:51.629Z,0.75
2023-10-10T03:05:39.616Z,2.00
2023-10-10T03:08:15.873Z,3.00
2023-10-10T03:10:48.440Z,3.00
2023-10-10T03:13:32.544Z,1.00
2023-10-10T03:16:31.915Z,0.75
2023-10-10T03:19:29.876Z,3.00
2023-10-10T03:22:13.839Z,3.50
2023-10-10T03:25:06.608Z,1.00
2023-10-10T03:27:50.531Z,0.00
2023-10-10T03:30:32.280Z,3.00
2023-10-10T03:33:10.352Z,1.00
2023-10-10T03:36:01.848Z,3.75
2023-10-10T03:39:00.541Z,1.50
2023-10-10T03:41:49.185Z,0.00
2023-10-10T03:44:36.378Z,1.00
2023-10-10T03:47:21.886Z,1.00
2023-10-10T03:50:07.545Z,3.25
2023-10-10T03:52:53.045Z,6.25
2023-10-10T03:55:38.790Z,2.50
2023-10-10T03:58:24.556Z,0.00
2023-10-10T04:01:15.791Z,1.00
2023-10-10T04:04:04.249Z,0.00
2023-10-10T04:06:50.109Z,1.00
2023-10-10T04:09:35.813Z,1.50
2023-10-10T04:12:21.647Z,0.50
2023-10-10T04:15:07.517Z,3.00
2023-10-10T04:17:54.769Z,0.00
2023-10-10T04:20:40.414Z,1.00
2023-10-10T04:23:25.971Z,3.00
2023-10-10T04:26:11.943Z,0.00
2023-10-10T04:28:57.534Z,1.00
2023-10-10T04:31:43.386Z,2.00
2023-10-10T04:34:41.983Z,1.00
2023-10-10T04:37:27.501Z,0.00
2023-10-10T04:40:13.580Z,0.50
2023-10-10T04:42:59.523Z,3.00
2023-10-10T04:45:45.082Z,0.00
2023-10-10T04:48:31.040Z,1.50
2023-10-10T04:51:18.443Z,0.00
2023-10-10T04:54:04.375Z,1.50
2023-10-10T04:56:50.052Z,0.25
2023-10-10T04:59:35.872Z,1.50
2023-10-10T05:02:21.599Z,1.00
2023-10-10T05:05:07.369Z,1.50
2023-10-10T05:07:54.602Z,1.00
2023-10-10T05:10:40.583Z,0.00
2023-10-10T05:13:26.157Z,2.00
2023-10-10T05:16:11.713Z,3.25
2023-10-10T05:18:57.445Z,2.50
2023-10-10T05:21:43.074Z,4.00
2023-10-10T05:24:16.018Z,1.00
2023-10-10T05:26:48.615Z,1.00
2023-10-10T05:29:20.948Z,1.00
2023-10-10T05:31:49.369Z,1.00
2023-10-10T05:34:17.806Z,1.00
2023-10-10T05:36:46.852Z,1.00
2023-10-10T05:39:22.466Z,1.00
2023-10-10T05:41:55.840Z,1.00
2023-10-10T05:44:24.843Z,3.00
2023-10-10T05:46:54.137Z,3.25
2023-10-10T05:49:23.953Z,2.50
2023-10-10T05:51:53.276Z,1.00
2023-10-10T05:54:23.209Z,1.00
2023-10-10T05:56:51.499Z,3.25
2023-10-10T05:59:19.914Z,3.00
2023-10-10T06:01:50.729Z,1.00
2023-10-10T06:04:19.393Z,3.75
2023-10-10T06:06:47.639Z,4.00
2023-10-10T06:09:21.175Z,3.50
2023-10-10T06:11:51.162Z,3.50
2023-10-10T06:14:22.772Z,3.00
2023-10-10T06:16:53.816Z,5.00
2023-10-10T06:19:23.214Z,3.00
2023-10-10T06:21:57.179Z,2.50
2023-10-10T06:24:27.492Z,3.00
2023-10-10T06:27:01.603Z,1.50
2023-10-10T06:29:30.816Z,1.00
2023-10-10T06:31:59.248Z,1.00
2023-10-10T06:34:36.160Z,2.00
2023-10-10T06:37:09.238Z,3.00
2023-10-10T06:39:55.586Z,1.00
2023-10-10T06:42:29.923Z,3.00
2023-10-10T06:45:09.071Z,3.00
2023-10-10T06:47:41.398Z,2.50
2023-10-10T06:50:12.866Z,3.00
2023-10-10T06:52:45.258Z,0.00
2023-10-10T06:55:22.528Z,1.00
2023-10-10T06:58:01.315Z,1.00
2023-10-10T07:00:40.255Z,0.00
2023-10-10T07:03:09.889Z,0.75
2023-10-10T07:05:44.082Z,1.00
2023-10-10T07:08:21.293Z,0.50
2023-10-10T07:10:50.436Z,1.50
2023-10-10T07:13:21.713Z,1.00
2023-10-10T07:15:54.248Z,1.50
2023-10-10T07:18:27.086Z,1.50
2023-10-10T07:21:32.272Z,0.00
2023-10-10T07:24:07.172Z,0.00
2023-10-10T07:26:42.909Z,0.00
2023-10-10T07:29:29.686Z,1.00
2023-10-10T07:32:06.610Z,0.50
2023-10-10T07:34:40.880Z,0.75
2023-10-10T07:37:10.726Z,1.00
2023-10-10T07:39:56.945Z,0.25
2023-10-10T07:42:34.392Z,2.50
2023-10-10T07:45:14.665Z,1.00
2023-10-10T07:48:05.895Z,1.00
2023-10-10T07:50:40.350Z,2.00
2023-10-10T07:53:23.060Z,2.00
2023-10-10T07:55:55.625Z,4.00
2023-10-10T07:58:37.468Z,6.00
2023-10-10T08:01:20.463Z,3.50
2023-10-10T08:03:55.580Z,1.00
2023-10-10T08:06:37.917Z,3.50
2023-10-10T08:09:20.789Z,4.00
2023-10-10T08:11:58.082Z,1.00
2023-10-10T08:14:32.643Z,3.00
2023-10-10T08:17:28.081Z,0.50
2023-10-10T08:20:21.327Z,0.25
2023-10-10T08:22:54.964Z,0.50
2023-10-10T08:25:27.995Z,1.00
2023-10-10T08:28:23.705Z,0.25
2023-10-10T08:30:57.714Z,5.50
2023-10-10T08:33:34.616Z,2.50
2023-10-10T08:36:04.579Z,3.00
2023-10-10T08:38:45.471Z,1.00
2023-10-10T08:41:24.975Z,1.50
2023-10-10T08:44:01.815Z,1.00
2023-10-10T08:46:42.785Z,0.00
2023-10-10T08:49:29.517Z,1.00
2023-10-10T08:52:04.521Z,0.00
2023-10-10T08:54:38.994Z,1.00
2023-10-10T08:57:16.741Z,1.50
2023-10-10T08:59:56.782Z,3.00
2023-10-10T09:02:42.421Z,0.25
2023-10-10T09:05:25.923Z,1.00
2023-10-10T09:08:09.937Z,3.00
2023-10-10T09:10:55.556Z,0.25
2023-10-10T09:13:35.372Z,3.50
2023-10-10T09:16:15.198Z,0.00
2023-10-10T09:18:56.085Z,0.00
2023-10-10T09:21:37.260Z,1.00
2023-10-10T09:24:28.375Z,2.00
2023-10-10T09:27:12.671Z,1.00
2023-10-10T09:29:49.074Z,0.00
2023-10-10T09:32:32.738Z,1.50
2023-10-10T09:35:15.003Z,1.00
2023-10-10T09:37:56.985Z,2.00
2023-10-10T09:40:35.855Z,0.00
2023-10-10T09:43:13.750Z,0.00
2023-10-10T09:45:57.643Z,1.00
2023-10-10T09:48:44.881Z,1.00
2023-10-10T09:51:41.787Z,1.50
2023-10-10T09:54:23.785Z,2.00
2023-10-10T09:56:58.930Z,0.50
2023-10-10T09:59:35.478Z,0.00
2023-10-10T10:02:46.465Z,1.00
2023-10-10T10:05:21.452Z,1.50
2023-10-10T10:08:15.217Z,0.00
2023-10-10T10:10:58.966Z,0.00
2023-10-10T10:13:41.845Z,1.00
2023-10-10T10:16:27.194Z,0.75
2023-10-10T10:19:15.202Z,1.00
2023-10-10T10:22:15.096Z,1.00
2023-10-10T10:25:22.057Z,1.00
2023-10-10T10:28:15.130Z,3.00
2023-10-10T10:31:10.274Z,1.00
2023-10-10T10:34:08.901Z,0.00
2023-10-10T10:36:46.045Z,0.75
2023-10-10T10:39:23.193Z,1.00
2023-10-10T10:42:14.020Z,0.75
2023-10-10T10:45:05.186Z,2.50
2023-10-10T10:48:01.569Z,0.00
2023-10-10T10:53:54.397Z,1.00
2023-10-10T10:56:44.745Z,1.00
2023-10-10T10:59:25.602Z,0.00
2023-10-10T11:02:28.222Z,0.75
2023-10-10T11:05:09.221Z,1.00
2023-10-10T11:08:08.663Z,0.50
2023-10-10T11:10:49.023Z,1.00
2023-10-10T11:13:39.966Z,0.00
2023-10-10T11:16:12.729Z,1.00
2023-10-10T11:18:46.515Z,0.00
2023-10-10T11:21:31.887Z,0.00
2023-10-10T11:24:06.547Z,0.25
2023-10-10T11:26:45.573Z,2.50
2023-10-10T11:29:31.697Z,0.00
2023-10-10T11:32:13.079Z,0.25
2023-10-10T11:34:51.858Z,0.00
2023-10-10T11:37:37.628Z,0.00
2023-10-10T11:40:35.868Z,0.00
2023-10-10T11:43:13.296Z,2.00
2023-10-10T11:46:06.239Z,0.00
2023-10-10T11:48:51.120Z,0.50
2023-10-10T11:51:42.440Z,1.00
2023-10-10T11:54:26.968Z,0.00
2023-10-10T11:57:04.589Z,0.00
2023-10-10T11:59:41.113Z,0.25
2023-10-10T12:02:21.543Z,0.50
2023-10-10T12:05:00.460Z,0.00
2023-10-10T12:07:44.266Z,1.00
2023-10-10T12:10:21.126Z,3.00
2023-10-10T12:12:58.336Z,2.00
2023-10-10T12:15:43.640Z,1.50
2023-10-10T12:18:26.294Z,1.00
2023-10-10T12:20:58.447Z,1.00
2023-10-10T12:23:33.768Z,1.00
2023-10-10T12:26:16.386Z,0.00
2023-10-10T12:29:05.309Z,0.00
2023-10-10T12:36:14.218Z,0.00
2023-10-10T12:38:58.929Z,0.25
2023-10-10T12:41:48.079Z,1.00
2023-10-10T12:44:20.060Z,0.00
2023-10-10T12:46:56.380Z,0.00
2023-10-10T12:49:36.109Z,0.00
2023-10-10T12:52:20.601Z,0.00
2023-10-10T12:55:04.554Z,0.00
2023-10-10T12:57:47.482Z,0.50
2023-10-10T13:00:35.080Z,2.00
2023-10-10T13:03:17.438Z,0.50
2023-10-10T13:05:56.714Z,1.00
2023-10-10T13:08:42.744Z,0.00
2023-10-10T13:11:24.021Z,1.00
2023-10-10T13:14:01.254Z,0.00
2023-10-10T13:16:56.002Z,0.00
2023-10-10T13:19:38.148Z,0.25
2023-10-10T13:22:24.489Z,1.00
2023-10-10T13:25:06.699Z,1.00
2023-10-10T13:27:42.353Z,0.00
2023-10-10T13:30:18.207Z,0.00
2023-10-10T13:33:07.226Z,2.00
2023-10-10T13:35:47.517Z,1.00
2023-10-10T13:38:31.293Z,0.75
2023-10-10T13:41:20.279Z,0.75
2023-10-10T13:44:01.101Z,0.00
2023-10-10T13:46:34.609Z,0.75
2023-10-10T13:49:06.195Z,0.00
2023-10-10T13:51:41.336Z,0.50
2023-10-10T13:54:17.745Z,0.00
2023-10-10T13:56:54.054Z,0.50
2023-10-10T13:59:29.673Z,0.25
2023-10-10T14:02:15.501Z,3.75
2023-10-10T14:05:02.725Z,1.00
2023-10-10T14:07:59.342Z,0.00
2023-10-10T14:10:37.334Z,1.00
2023-10-10T14:13:26.915Z,1.00
2023-10-10T14:18:56.336Z,1.75
2023-10-10T14:21:31.795Z,0.00
2023-10-10T14:24:06.624Z,1.00
2023-10-10T14:26:42.386Z,1.00
2023-10-10T14:29:18.627Z,4.00
2023-10-10T14:32:02.673Z,2.50
2023-10-10T14:34:42.461Z,1.00
2023-10-10T14:37:35.997Z,0.25
2023-10-10T14:40:15.659Z,1.00
2023-10-10T14:42:46.013Z,0.75
2023-10-10T14:45:30.607Z,1.00
2023-10-10T14:48:25.100Z,0.00
2023-10-10T14:50:58.983Z,0.00
2023-10-10T14:53:45.641Z,0.00
2023-10-10T14:56:25.048Z,0.00
2023-10-10T14:58:59.723Z,0.25
2023-10-10T15:01:36.573Z,0.25
2023-10-10T15:04:08.824Z,0.00
2023-10-10T15:06:43.097Z,1.00
2023-10-10T15:09:27.704Z,1.00
2023-10-10T15:12:10.642Z,0.50
2023-10-10T15:14:56.597Z,2.00
2023-10-10T15:17:36.410Z,0.00
2023-10-10T15:20:20.651Z,1.00
2023-10-10T15:23:07.340Z,0.00
2023-10-10T15:25:43.469Z,0.00
2023-10-10T15:28:22.481Z,1.00
2023-10-10T15:30:59.325Z,0.50
2023-10-10T15:33:33.732Z,1.00
2023-10-10T15:36:11.586Z,1.00
2023-10-10T15:38:44.407Z,0.25
2023-10-10T15:41:18.275Z,0.25
2023-10-10T15:43:53.658Z,0.00
2023-10-10T15:46:29.439Z,3.00
2023-10-10T15:49:02.522Z,1.00
2023-10-10T15:51:43.442Z,3.00
2023-10-10T15:54:33.092Z,0.75
2023-10-10T15:57:10.888Z,1.00
2023-10-10T16:00:09.799Z,1.00
2023-10-10T16:02:51.120Z,1.00
2023-10-10T16:05:27.523Z,1.00
2023-10-10T16:08:27.470Z,2.50
2023-10-10T16:11:21.485Z,2.00
2023-10-10T16:13:56.963Z,1.00
2023-10-10T16:16:40.106Z,1.00
2023-10-10T16:19:17.315Z,4.00
2023-10-10T16:21:54.954Z,1.00
2023-10-10T16:24:31.016Z,3.00
2023-10-10T16:27:11.433Z,3.00
2023-10-10T16:29:52.680Z,1.00
2023-10-10T16:32:23.066Z,1.50
2023-10-10T16:35:01.432Z,3.50
2023-10-10T16:37:39.223Z,1.50
2023-10-10T16:40:24.465Z,2.00
2023-10-10T16:43:16.281Z,3.00
2023-10-10T16:45:58.473Z,3.00
2023-10-10T16:48:36.769Z,2.00
2023-10-10T16:51:16.149Z,1.00
2023-10-10T16:53:57.028Z,3.25
2023-10-10T16:56:36.677Z,1.00
2023-10-10T16:59:16.418Z,1.50
2023-10-10T17:02:00.490Z,3.00
2023-10-10T17:04:51.461Z,1.00
2023-10-10T17:07:27.200Z,2.00
2023-10-10T17:10:19.687Z,3.50
2023-10-10T17:12:57.108Z,5.50
2023-10-10T17:15:41.316Z,0.00
2023-10-10T17:18:17.182Z,2.50
2023-10-10T17:20:58.552Z,1.50
2023-10-10T17:23:43.549Z,1.00
2023-10-10T17:26:21.414Z,3.25
2023-10-10T17:28:56.631Z,2.00
2023-10-10T17:31:37.990Z,2.00
2023-10-10T17:34:22.949Z,1.00
2023-10-10T17:37:16.983Z,3.00
2023-10-10T17:39:55.814Z,2.50
2023-10-10T17:42:29.854Z,1.00
2023-10-10T17:45:09.449Z,1.50
2023-10-10T17:47:45.141Z,1.00
2023-10-10T17:50:19.316Z,1.00
2023-10-10T17:52:58.876Z,2.00
2023-10-10T17:55:33.089Z,1.00
2023-10-10T17:58:07.280Z,0.00
2023-10-10T18:00:47.655Z,1.50
2023-10-10T18:03:21.669Z,0.00
2023-10-10T18:05:59.073Z,1.00
2023-10-10T18:08:30.525Z,3.00
2023-10-10T18:11:37.195Z,4.50
2023-10-10T18:14:18.424Z,1.00
2023-10-10T18:16:55.591Z,2.50
2023-10-10T18:19:36.111Z,1.00
2023-10-10T18:22:07.752Z,0.50
2023-10-10T18:24:39.744Z,1.00
2023-10-10T18:27:17.356Z,2.00
2023-10-10T18:29:51.025Z,1.00
2023-10-10T18:32:30.429Z,1.00
2023-10-10T18:35:17.764Z,1.00
2023-10-10T18:37:50.943Z,1.00
2023-10-10T18:40:32.507Z,1.00
2023-10-10T18:43:09.345Z,3.00
2023-10-10T18:45:49.295Z,2.00
2023-10-10T18:48:23.499Z,1.00
2023-10-10T18:50:55.224Z,3.00
2023-10-10T18:53:28.544Z,1.00
2023-10-10T18:56:00.095Z,0.75
2023-10-10T18:58:30.980Z,1.00
2023-10-10T19:01:02.654Z,1.00
2023-10-10T19:03:32.368Z,0.00
2023-10-10T19:06:06.889Z,2.00
2023-10-10T19:08:41.654Z,1.00
2023-10-10T19:11:12.312Z,3.00
2023-10-10T19:13:50.902Z,2.50
2023-10-10T19:16:20.273Z,1.00
2023-10-10T19:18:49.691Z,1.00
2023-10-10T19:21:20.981Z,0.50
2023-10-10T19:23:53.311Z,1.00
2023-10-10T19:26:25.127Z,0.50
2023-10-10T19:28:58.211Z,0.50
2023-10-10T19:31:26.984Z,1.00
2023-10-10T19:33:55.936Z,0.50
2023-10-10T19:36:26.357Z,0.00
2023-10-10T19:38:57.998Z,0.25
2023-10-10T19:41:26.549Z,2.50
2023-10-10T19:43:54.965Z,1.00
2023-10-10T19:46:23.370Z,1.50
2023-10-10T19:48:52.762Z,1.00
2023-10-10T19:51:22.805Z,2.00
2023-10-10T19:53:54.112Z,0.50
2023-10-10T19:56:23.022Z,1.00
2023-10-10T19:58:51.496Z,1.50
2023-10-10T20:01:20.453Z,2.00
2023-10-10T20:03:48.943Z,1.00
2023-10-10T20:06:21.626Z,0.00
2023-10-10T20:08:50.561Z,1.00
2023-10-10T20:11:20.493Z,1.50
2023-10-10T20:13:48.986Z,0.25
2023-10-10T20:16:18.116Z,2.50
2023-10-10T20:18:47.442Z,3.00
2023-10-10T20:21:17.695Z,3.50
2023-10-10T20:23:46.754Z,3.00
2023-10-10T20:26:20.487Z,1.00
2023-10-10T20:28:52.085Z,0.00
2023-10-10T20:31:23.100Z,3.00
2023-10-10T20:33:52.156Z,3.00
2023-10-10T20:36:21.002Z,3.25
2023-10-10T20:38:51.847Z,3.50
2023-10-10T20:41:20.576Z,3.00
2023-10-10T20:43:49.048Z,1.00
2023-10-10T20:46:20.673Z,4.00
2023-10-10T20:48:49.859Z,1.00
2023-10-10T20:51:18.136Z,2.00
2023-10-10T20:53:47.389Z,4.25
2023-10-10T20:56:18.163Z,4.00
2023-10-10T20:58:46.592Z,4.50
2023-10-10T21:01:15.415Z,3.00
2023-10-10T21:03:45.315Z,2.50
2023-10-10T21:06:13.940Z,3.00
2023-10-10T21:08:43.261Z,2.25
2023-10-10T21:11:12.155Z,3.75
2023-10-10T21:13:41.316Z,0.50
2023-10-10T21:16:16.188Z,3.50
2023-10-10T21:18:47.315Z,3.00
2023-10-10T21:21:16.125Z,3.50
2023-10-10T21:23:45.088Z,4.00
2023-10-10T21:26:15.467Z,3.50
2023-10-10T21:28:45.795Z,3.50
2023-10-10T21:31:14.227Z,1.50
2023-10-10T21:33:45.112Z,4.00
2023-10-10T21:36:15.398Z,3.50
2023-10-10T21:38:43.799Z,3.00
2023-10-10T21:41:13.002Z,5.00
2023-10-10T21:43:41.436Z,3.00
2023-10-10T21:46:09.806Z,2.00
2023-10-10T21:48:38.473Z,3.25
2023-10-10T21:51:08.694Z,3.75
2023-10-10T21:53:39.463Z,3.75
2023-10-10T21:56:08.406Z,1.50
2023-10-10T21:58:40.212Z,3.50
2023-10-10T22:01:12.330Z,6.75
2023-10-10T22:03:45.924Z,6.00
2023-10-10T22:06:14.714Z,3.50
2023-10-10T22:08:45.174Z,3.75
2023-10-10T22:11:13.538Z,1.00
2023-10-10T22:13:41.826Z,4.00
2023-10-10T22:16:11.712Z,5.25
2023-10-10T22:18:40.164Z,6.00
2023-10-10T22:21:11.043Z,3.50
2023-10-10T22:23:39.374Z,4.00
2023-10-10T22:26:10.473Z,6.00
2023-10-10T22:28:40.125Z,1.00
2023-10-10T22:31:15.451Z,4.00
2023-10-10T22:33:45.482Z,6.40
2023-10-10T22:36:16.232Z,6.00
2023-10-10T22:38:46.883Z,6.60
2023-10-10T22:41:20.004Z,2.60
2023-10-10T22:43:49.980Z,6.20
2023-10-10T22:46:18.283Z,0.20
2023-10-10T22:48:47.632Z,6.40
2023-10-10T22:51:15.902Z,6.60
2023-10-10T22:53:47.685Z,5.80
2023-10-10T22:56:19.522Z,5.60
2023-10-10T22:58:48.299Z,7.20
2023-10-10T23:01:19.293Z,4.00
2023-10-10T23:03:48.163Z,6.00
2023-10-10T23:06:16.891Z,9.00
2023-10-10T23:08:45.182Z,3.00
2023-10-10T23:11:14.810Z,6.60
2023-10-10T23:13:45.129Z,6.00
2023-10-10T23:16:18.337Z,7.00
2023-10-10T23:18:47.179Z,10.00
2023-10-10T23:21:15.947Z,9.60
2023-10-10T23:23:44.304Z,7.40
2023-10-10T23:26:12.565Z,6.50
2023-10-10T23:28:41.790Z,7.50
2023-10-10T23:31:13.220Z,5.50
2023-10-10T23:33:42.656Z,6.60
2023-10-10T23:36:12.727Z,7.75
2023-10-10T23:38:45.612Z,3.75
2023-10-10T23:41:15.600Z,8.75
2023-10-10T23:43:47.781Z,7.50
2023-10-10T23:46:23.491Z,5.50
2023-10-10T23:48:56.169Z,12.00
2023-10-10T23:51:24.626Z,6.00
2023-10-10T23:53:52.821Z,3.25
2023-10-10T23:56:21.006Z,8.00
2023-10-10T23:58:53.235Z,7.00
